Terminal Aerodrome Forecast
Issued by NWS

Home | Current Version | Previous Version | Text Only | Print | Product List | Glossary On
Versions: 1 2 3 4 5 6 7 8 9 10 11 12 13 14 15 16 17 18
000
FTUS43 KICT 241740
TAFHUT
TAF
KHUT 241740Z 2418/2518 30013KT P6SM SCT015
      TEMPO 2418/2419 BKN015
     FM241900 29011KT P6SM SKC
     FM250100 19008KT P6SM SKC
     FM251000 18013KT P6SM SCT250 WS015/19050KT
     FM251600 18023G33KT P6SM BKN250=

USA.gov is the U.S. government's official web portal to all federal, state and local government web resources and services.